sensor_id;sensor_type;location;lat;lon;timestamp;P1;durP1;ratioP1;P2;durP2;ratioP2
18322;SDS011;9287;49.456;11.064;2023-05-07T00:01:07;2.20;;;1.80;;
18322;SDS011;9287;49.456;11.064;2023-05-07T00:03:35;1.70;;;1.60;;
18322;SDS011;9287;49.456;11.064;2023-05-07T00:06:06;1.73;;;1.63;;
18322;SDS011;9287;49.456;11.064;2023-05-07T00:08:36;2.20;;;1.60;;
18322;SDS011;9287;49.456;11.064;2023-05-07T00:11:04;2.90;;;1.73;;
18322;SDS011;9287;49.456;11.064;2023-05-07T00:13:32;1.77;;;1.60;;
18322;SDS011;9287;49.456;11.064;2023-05-07T00:16:05;1.80;;;1.60;;
18322;SDS011;9287;49.456;11.064;2023-05-07T00:18:36;3.40;;;1.57;;
18322;SDS011;9287;49.456;11.064;2023-05-07T00:21:04;3.90;;;1.60;;
18322;SDS011;9287;49.456;11.064;2023-05-07T00:23:37;3.40;;;1.63;;
18322;SDS011;9287;49.456;11.064;2023-05-07T00:26:05;2.17;;;1.50;;
18322;SDS011;9287;49.456;11.064;2023-05-07T00:28:33;2.93;;;1.30;;
18322;SDS011;9287;49.456;11.064;2023-05-07T00:31:02;3.50;;;1.40;;
18322;SDS011;9287;49.456;11.064;2023-05-07T00:33:33;2.43;;;1.33;;
18322;SDS011;9287;49.456;11.064;2023-05-07T00:36:04;1.80;;;1.43;;
18322;SDS011;9287;49.456;11.064;2023-05-07T00:38:36;3.70;;;1.40;;
18322;SDS011;9287;49.456;11.064;2023-05-07T00:41:05;1.60;;;1.50;;
18322;SDS011;9287;49.456;11.064;2023-05-07T00:43:34;2.30;;;1.30;;
18322;SDS011;9287;49.456;11.064;2023-05-07T00:46:03;1.40;;;1.30;;
18322;SDS011;9287;49.456;11.064;2023-05-07T00:48:34;1.47;;;1.37;;
18322;SDS011;9287;49.456;11.064;2023-05-07T00:51:02;1.43;;;1.33;;
18322;SDS011;9287;49.456;11.064;2023-05-07T00:53:30;3.20;;;1.50;;
18322;SDS011;9287;49.456;11.064;2023-05-07T00:56:01;1.90;;;1.27;;
18322;SDS011;9287;49.456;11.064;2023-05-07T00:58:29;2.27;;;1.20;;
18322;SDS011;9287;49.456;11.064;2023-05-07T01:00:57;1.13;;;1.03;;
18322;SDS011;9287;49.456;11.064;2023-05-07T01:03:30;1.43;;;1.23;;
18322;SDS011;9287;49.456;11.064;2023-05-07T01:05:59;1.50;;;1.10;;
18322;SDS011;9287;49.456;11.064;2023-05-07T01:08:30;1.47;;;1.30;;
18322;SDS011;9287;49.456;11.064;2023-05-07T01:11:05;1.60;;;1.23;;
18322;SDS011;9287;49.456;11.064;2023-05-07T01:13:35;2.60;;;1.10;;
18322;SDS011;9287;49.456;11.064;2023-05-07T01:16:04;1.57;;;1.43;;
18322;SDS011;9287;49.456;11.064;2023-05-07T01:18:38;1.57;;;1.23;;
18322;SDS011;9287;49.456;11.064;2023-05-07T01:21:08;1.00;;;1.00;;
18322;SDS011;9287;49.456;11.064;2023-05-07T01:23:41;1.50;;;1.33;;
18322;SDS011;9287;49.456;11.064;2023-05-07T01:26:11;1.80;;;1.00;;
18322;SDS011;9287;49.456;11.064;2023-05-07T01:28:43;1.33;;;1.23;;
18322;SDS011;9287;49.456;11.064;2023-05-07T01:31:12;1.23;;;1.13;;
18322;SDS011;9287;49.456;11.064;2023-05-07T01:33:44;1.30;;;1.20;;
18322;SDS011;9287;49.456;11.064;2023-05-07T01:36:13;1.50;;;1.33;;
18322;SDS011;9287;49.456;11.064;2023-05-07T01:38:45;2.33;;;1.37;;
18322;SDS011;9287;49.456;11.064;2023-05-07T01:41:13;2.40;;;1.13;;
18322;SDS011;9287;49.456;11.064;2023-05-07T01:43:44;1.30;;;1.20;;
18322;SDS011;9287;49.456;11.064;2023-05-07T01:46:14;1.40;;;1.30;;
18322;SDS011;9287;49.456;11.064;2023-05-07T01:48:43;1.83;;;1.30;;
18322;SDS011;9287;49.456;11.064;2023-05-07T01:51:13;1.40;;;1.30;;
18322;SDS011;9287;49.456;11.064;2023-05-07T01:53:41;1.53;;;1.43;;
18322;SDS011;9287;49.456;11.064;2023-05-07T01:56:11;1.83;;;1.20;;
18322;SDS011;9287;49.456;11.064;2023-05-07T01:58:39;2.33;;;1.60;;
18322;SDS011;9287;49.456;11.064;2023-05-07T02:01:07;1.23;;;1.13;;
18322;SDS011;9287;49.456;11.064;2023-05-07T02:03:36;1.40;;;1.30;;
18322;SDS011;9287;49.456;11.064;2023-05-07T02:06:03;2.37;;;1.17;;
18322;SDS011;9287;49.456;11.064;2023-05-07T02:08:33;1.30;;;1.20;;
18322;SDS011;9287;49.456;11.064;2023-05-07T02:11:02;1.47;;;1.30;;
18322;SDS011;9287;49.456;11.064;2023-05-07T02:13:34;1.97;;;1.43;;
18322;SDS011;9287;49.456;11.064;2023-05-07T02:16:06;1.93;;;1.50;;
18322;SDS011;9287;49.456;11.064;2023-05-07T02:18:34;1.53;;;1.40;;
18322;SDS011;9287;49.456;11.064;2023-05-07T02:21:03;2.90;;;1.50;;
18322;SDS011;9287;49.456;11.064;2023-05-07T02:23:31;2.13;;;1.50;;
18322;SDS011;9287;49.456;11.064;2023-05-07T02:26:05;1.60;;;1.50;;
18322;SDS011;9287;49.456;11.064;2023-05-07T02:28:32;2.13;;;1.63;;
18322;SDS011;9287;49.456;11.064;2023-05-07T02:31:04;2.03;;;1.83;;
18322;SDS011;9287;49.456;11.064;2023-05-07T02:33:32;1.83;;;1.60;;
18322;SDS011;9287;49.456;11.064;2023-05-07T02:36:07;1.90;;;1.80;;
18322;SDS011;9287;49.456;11.064;2023-05-07T02:38:35;1.70;;;1.60;;
18322;SDS011;9287;49.456;11.064;2023-05-07T02:41:05;1.80;;;1.70;;
18322;SDS011;9287;49.456;11.064;2023-05-07T02:43:33;2.20;;;1.70;;
18322;SDS011;9287;49.456;11.064;2023-05-07T02:46:04;2.20;;;2.00;;
18322;SDS011;9287;49.456;11.064;2023-05-07T02:48:33;3.03;;;1.93;;
18322;SDS011;9287;49.456;11.064;2023-05-07T02:51:03;1.90;;;1.80;;
18322;SDS011;9287;49.456;11.064;2023-05-07T02:53:32;2.03;;;1.93;;
18322;SDS011;9287;49.456;11.064;2023-05-07T02:56:02;2.53;;;1.97;;
18322;SDS011;9287;49.456;11.064;2023-05-07T02:58:30;4.80;;;2.23;;
18322;SDS011;9287;49.456;11.064;2023-05-07T03:00:58;3.00;;;2.80;;
18322;SDS011;9287;49.456;11.064;2023-05-07T03:03:27;2.53;;;2.33;;
18322;SDS011;9287;49.456;11.064;2023-05-07T03:05:56;3.10;;;2.60;;
18322;SDS011;9287;49.456;11.064;2023-05-07T03:08:24;2.97;;;2.67;;
18322;SDS011;9287;49.456;11.064;2023-05-07T03:10:52;2.97;;;2.77;;
18322;SDS011;9287;49.456;11.064;2023-05-07T03:13:21;3.13;;;2.83;;
18322;SDS011;9287;49.456;11.064;2023-05-07T03:15:50;3.20;;;2.90;;
18322;SDS011;9287;49.456;11.064;2023-05-07T03:18:18;3.33;;;3.10;;
18322;SDS011;9287;49.456;11.064;2023-05-07T03:20:52;3.47;;;3.17;;
18322;SDS011;9287;49.456;11.064;2023-05-07T03:23:22;4.57;;;3.23;;
18322;SDS011;9287;49.456;11.064;2023-05-07T03:25:53;4.13;;;3.77;;
18322;SDS011;9287;49.456;11.064;2023-05-07T03:28:20;3.40;;;3.20;;
18322;SDS011;9287;49.456;11.064;2023-05-07T03:30:48;3.37;;;3.17;;
18322;SDS011;9287;49.456;11.064;2023-05-07T03:33:16;4.17;;;3.83;;
18322;SDS011;9287;49.456;11.064;2023-05-07T03:35:45;3.83;;;3.43;;
18322;SDS011;9287;49.456;11.064;2023-05-07T03:38:16;4.33;;;4.03;;
18322;SDS011;9287;49.456;11.064;2023-05-07T03:40:47;3.60;;;3.17;;
18322;SDS011;9287;49.456;11.064;2023-05-07T03:43:17;3.70;;;3.43;;
18322;SDS011;9287;49.456;11.064;2023-05-07T03:45:45;3.67;;;3.37;;
18322;SDS011;9287;49.456;11.064;2023-05-07T03:48:13;3.67;;;3.37;;
18322;SDS011;9287;49.456;11.064;2023-05-07T03:50:41;3.67;;;3.37;;
18322;SDS011;9287;49.456;11.064;2023-05-07T03:53:09;3.90;;;3.63;;
18322;SDS011;9287;49.456;11.064;2023-05-07T03:55:39;4.07;;;3.77;;
18322;SDS011;9287;49.456;11.064;2023-05-07T03:58:07;4.77;;;4.37;;
18322;SDS011;9287;49.456;11.064;2023-05-07T04:00:37;4.10;;;3.50;;
18322;SDS011;9287;49.456;11.064;2023-05-07T04:03:06;3.77;;;3.57;;
18322;SDS011;9287;49.456;11.064;2023-05-07T04:05:37;3.63;;;3.33;;
18322;SDS011;9287;49.456;11.064;2023-05-07T04:08:04;3.93;;;3.57;;
18322;SDS011;9287;49.456;11.064;2023-05-07T04:10:32;4.57;;;4.17;;
18322;SDS011;9287;49.456;11.064;2023-05-07T04:13:02;4.73;;;3.87;;
18322;SDS011;9287;49.456;11.064;2023-05-07T04:15:30;3.87;;;3.60;;
18322;SDS011;9287;49.456;11.064;2023-05-07T04:17:59;4.67;;;4.03;;
18322;SDS011;9287;49.456;11.064;2023-05-07T04:20:27;5.37;;;4.00;;
18322;SDS011;9287;49.456;11.064;2023-05-07T04:22:57;4.07;;;3.67;;
18322;SDS011;9287;49.456;11.064;2023-05-07T04:25:25;9.60;;;4.70;;
18322;SDS011;9287;49.456;11.064;2023-05-07T04:27:59;4.87;;;4.57;;
18322;SDS011;9287;49.456;11.064;2023-05-07T04:30:30;6.90;;;4.57;;
18322;SDS011;9287;49.456;11.064;2023-05-07T04:32:58;4.30;;;4.00;;
18322;SDS011;9287;49.456;11.064;2023-05-07T04:35:26;6.03;;;4.63;;
18322;SDS011;9287;49.456;11.064;2023-05-07T04:37:54;5.17;;;4.67;;
18322;SDS011;9287;49.456;11.064;2023-05-07T04:40:22;7.20;;;4.90;;
18322;SDS011;9287;49.456;11.064;2023-05-07T04:42:50;5.30;;;4.80;;
18322;SDS011;9287;49.456;11.064;2023-05-07T04:45:23;4.80;;;4.40;;
18322;SDS011;9287;49.456;11.064;2023-05-07T04:47:53;5.47;;;4.97;;
18322;SDS011;9287;49.456;11.064;2023-05-07T04:50:21;5.63;;;5.23;;
18322;SDS011;9287;49.456;11.064;2023-05-07T04:52:53;5.10;;;4.70;;
18322;SDS011;9287;49.456;11.064;2023-05-07T04:55:22;5.87;;;5.37;;
18322;SDS011;9287;49.456;11.064;2023-05-07T04:57:52;5.03;;;4.63;;
18322;SDS011;9287;49.456;11.064;2023-05-07T05:00:20;6.47;;;5.43;;
18322;SDS011;9287;49.456;11.064;2023-05-07T05:02:49;6.27;;;5.70;;
18322;SDS011;9287;49.456;11.064;2023-05-07T05:05:20;5.53;;;5.10;;
18322;SDS011;9287;49.456;11.064;2023-05-07T05:07:48;5.37;;;4.97;;
18322;SDS011;9287;49.456;11.064;2023-05-07T05:10:17;6.10;;;5.60;;
18322;SDS011;9287;49.456;11.064;2023-05-07T05:12:48;6.00;;;5.50;;
18322;SDS011;9287;49.456;11.064;2023-05-07T05:15:16;6.47;;;5.87;;
18322;SDS011;9287;49.456;11.064;2023-05-07T05:17:45;6.10;;;5.50;;
18322;SDS011;9287;49.456;11.064;2023-05-07T05:20:13;5.60;;;5.13;;
18322;SDS011;9287;49.456;11.064;2023-05-07T05:22:48;6.80;;;6.20;;
18322;SDS011;9287;49.456;11.064;2023-05-07T05:25:15;6.17;;;5.67;;
18322;SDS011;9287;49.456;11.064;2023-05-07T05:27:46;6.43;;;5.83;;
18322;SDS011;9287;49.456;11.064;2023-05-07T05:30:14;7.50;;;5.83;;
18322;SDS011;9287;49.456;11.064;2023-05-07T05:32:42;7.37;;;5.83;;
18322;SDS011;9287;49.456;11.064;2023-05-07T05:35:16;6.37;;;5.83;;
18322;SDS011;9287;49.456;11.064;2023-05-07T05:37:45;6.37;;;5.77;;
18322;SDS011;9287;49.456;11.064;2023-05-07T05:40:15;7.30;;;6.43;;
18322;SDS011;9287;49.456;11.064;2023-05-07T05:42:45;6.27;;;5.77;;
18322;SDS011;9287;49.456;11.064;2023-05-07T05:45:16;7.67;;;6.07;;
18322;SDS011;9287;49.456;11.064;2023-05-07T05:47:45;5.83;;;5.33;;
18322;SDS011;9287;49.456;11.064;2023-05-07T05:50:13;6.97;;;6.37;;
18322;SDS011;9287;49.456;11.064;2023-05-07T05:52:41;7.40;;;6.67;;
18322;SDS011;9287;49.456;11.064;2023-05-07T05:55:11;7.27;;;6.53;;
18322;SDS011;9287;49.456;11.064;2023-05-07T05:57:39;6.47;;;5.87;;
18322;SDS011;9287;49.456;11.064;2023-05-07T06:00:09;6.57;;;5.83;;
18322;SDS011;9287;49.456;11.064;2023-05-07T06:02:38;8.63;;;6.53;;
18322;SDS011;9287;49.456;11.064;2023-05-07T06:05:06;7.30;;;6.67;;
18322;SDS011;9287;49.456;11.064;2023-05-07T06:07:35;6.50;;;6.00;;
18322;SDS011;9287;49.456;11.064;2023-05-07T06:10:04;6.80;;;6.20;;
18322;SDS011;9287;49.456;11.064;2023-05-07T06:12:35;6.90;;;6.30;;
18322;SDS011;9287;49.456;11.064;2023-05-07T06:15:05;6.90;;;6.20;;
18322;SDS011;9287;49.456;11.064;2023-05-07T06:17:33;6.67;;;6.07;;
18322;SDS011;9287;49.456;11.064;2023-05-07T06:20:01;7.40;;;6.67;;
18322;SDS011;9287;49.456;11.064;2023-05-07T06:22:31;7.13;;;6.53;;
18322;SDS011;9287;49.456;11.064;2023-05-07T06:25:02;6.73;;;6.13;;
18322;SDS011;9287;49.456;11.064;2023-05-07T06:27:30;7.47;;;6.37;;
18322;SDS011;9287;49.456;11.064;2023-05-07T06:30:01;6.50;;;5.90;;
18322;SDS011;9287;49.456;11.064;2023-05-07T06:32:30;7.07;;;6.37;;
18322;SDS011;9287;49.456;11.064;2023-05-07T06:35:00;6.93;;;6.33;;
18322;SDS011;9287;49.456;11.064;2023-05-07T06:37:28;7.63;;;6.90;;
18322;SDS011;9287;49.456;11.064;2023-05-07T06:39:56;6.60;;;6.10;;
18322;SDS011;9287;49.456;11.064;2023-05-07T06:42:28;7.27;;;6.57;;
18322;SDS011;9287;49.456;11.064;2023-05-07T06:44:56;7.33;;;6.50;;
18322;SDS011;9287;49.456;11.064;2023-05-07T06:47:25;7.47;;;6.67;;
18322;SDS011;9287;49.456;11.064;2023-05-07T06:49:53;6.73;;;6.10;;
18322;SDS011;9287;49.456;11.064;2023-05-07T06:52:37;6.10;;;5.60;;
18322;SDS011;9287;49.456;11.064;2023-05-07T06:55:06;8.53;;;6.23;;
18322;SDS011;9287;49.456;11.064;2023-05-07T06:57:35;7.50;;;5.67;;
18322;SDS011;9287;49.456;11.064;2023-05-07T07:00:03;7.70;;;6.07;;
18322;SDS011;9287;49.456;11.064;2023-05-07T07:02:34;5.90;;;5.50;;
18322;SDS011;9287;49.456;11.064;2023-05-07T07:05:06;5.57;;;5.10;;
18322;SDS011;9287;49.456;11.064;2023-05-07T07:07:37;5.53;;;5.05;;
18322;SDS011;9287;49.456;11.064;2023-05-07T07:10:05;5.55;;;5.03;;
18322;SDS011;9287;49.456;11.064;2023-05-07T07:12:38;4.95;;;4.53;;
18322;SDS011;9287;49.456;11.064;2023-05-07T07:15:13;5.80;;;5.30;;
18322;SDS011;9287;49.456;11.064;2023-05-07T07:17:43;5.55;;;5.05;;
18322;SDS011;9287;49.456;11.064;2023-05-07T07:20:12;5.55;;;5.05;;
18322;SDS011;9287;49.456;11.064;2023-05-07T07:22:41;5.55;;;5.13;;
18322;SDS011;9287;49.456;11.064;2023-05-07T07:25:10;4.97;;;4.57;;
18322;SDS011;9287;49.456;11.064;2023-05-07T07:27:39;7.40;;;4.60;;
18322;SDS011;9287;49.456;11.064;2023-05-07T07:30:09;4.38;;;4.05;;
18322;SDS011;9287;49.456;11.064;2023-05-07T07:32:37;8.23;;;4.97;;
18322;SDS011;9287;49.456;11.064;2023-05-07T07:35:07;5.38;;;4.88;;
18322;SDS011;9287;49.456;11.064;2023-05-07T07:37:41;4.20;;;3.90;;
18322;SDS011;9287;49.456;11.064;2023-05-07T07:40:09;5.15;;;4.63;;
18322;SDS011;9287;49.456;11.064;2023-05-07T07:42:40;5.05;;;4.65;;
18322;SDS011;9287;49.456;11.064;2023-05-07T07:45:11;4.35;;;4.05;;
18322;SDS011;9287;49.456;11.064;2023-05-07T07:47:39;5.03;;;4.55;;
18322;SDS011;9287;49.456;11.064;2023-05-07T07:50:09;4.85;;;4.55;;
18322;SDS011;9287;49.456;11.064;2023-05-07T07:53:00;5.18;;;4.72;;
18322;SDS011;9287;49.456;11.064;2023-05-07T07:55:28;4.95;;;4.55;;
18322;SDS011;9287;49.456;11.064;2023-05-07T07:57:58;4.95;;;4.65;;
18322;SDS011;9287;49.456;11.064;2023-05-07T08:00:29;4.82;;;4.43;;
18322;SDS011;9287;49.456;11.064;2023-05-07T08:02:58;4.75;;;4.25;;
18322;SDS011;9287;49.456;11.064;2023-05-07T08:05:29;4.70;;;4.30;;
18322;SDS011;9287;49.456;11.064;2023-05-07T08:07:57;6.65;;;4.20;;
18322;SDS011;9287;49.456;11.064;2023-05-07T08:10:25;4.60;;;4.30;;
18322;SDS011;9287;49.456;11.064;2023-05-07T08:12:53;4.22;;;3.92;;
18322;SDS011;9287;49.456;11.064;2023-05-07T08:15:21;4.15;;;3.85;;
18322;SDS011;9287;49.456;11.064;2023-05-07T08:17:48;3.95;;;3.65;;
18322;SDS011;9287;49.456;11.064;2023-05-07T08:20:17;4.43;;;4.03;;
18322;SDS011;9287;49.456;11.064;2023-05-07T08:22:46;3.80;;;3.60;;
18322;SDS011;9287;49.456;11.064;2023-05-07T08:25:14;4.57;;;4.18;;
18322;SDS011;9287;49.456;11.064;2023-05-07T08:27:42;4.45;;;4.10;;
18322;SDS011;9287;49.456;11.064;2023-05-07T08:30:11;4.43;;;4.03;;
18322;SDS011;9287;49.456;11.064;2023-05-07T08:32:40;4.55;;;4.10;;
18322;SDS011;9287;49.456;11.064;2023-05-07T08:35:08;3.83;;;3.53;;
18322;SDS011;9287;49.456;11.064;2023-05-07T08:37:37;3.90;;;3.60;;
18322;SDS011;9287;49.456;11.064;2023-05-07T08:40:07;3.80;;;3.50;;
18322;SDS011;9287;49.456;11.064;2023-05-07T08:42:39;3.78;;;3.53;;
18322;SDS011;9287;49.456;11.064;2023-05-07T08:45:08;4.32;;;3.78;;
18322;SDS011;9287;49.456;11.064;2023-05-07T08:47:40;5.07;;;3.17;;
18322;SDS011;9287;49.456;11.064;2023-05-07T08:50:11;5.75;;;3.10;;
18322;SDS011;9287;49.456;11.064;2023-05-07T08:52:39;2.65;;;2.45;;
18322;SDS011;9287;49.456;11.064;2023-05-07T08:55:09;3.33;;;3.00;;
18322;SDS011;9287;49.456;11.064;2023-05-07T08:57:38;3.20;;;3.00;;
18322;SDS011;9287;49.456;11.064;2023-05-07T09:00:06;3.05;;;2.80;;
18322;SDS011;9287;49.456;11.064;2023-05-07T09:02:35;4.05;;;3.30;;
18322;SDS011;9287;49.456;11.064;2023-05-07T09:05:04;3.10;;;2.90;;
18322;SDS011;9287;49.456;11.064;2023-05-07T09:07:32;3.10;;;2.90;;
18322;SDS011;9287;49.456;11.064;2023-05-07T09:10:01;3.75;;;3.40;;
18322;SDS011;9287;49.456;11.064;2023-05-07T09:12:31;2.97;;;2.78;;
18322;SDS011;9287;49.456;11.064;2023-05-07T09:15:01;3.15;;;2.85;;
18322;SDS011;9287;49.456;11.064;2023-05-07T09:17:29;2.97;;;2.65;;
18322;SDS011;9287;49.456;11.064;2023-05-07T09:20:01;5.60;;;3.00;;
18322;SDS011;9287;49.456;11.064;2023-05-07T09:22:31;2.95;;;2.65;;
18322;SDS011;9287;49.456;11.064;2023-05-07T09:24:59;3.30;;;3.08;;
18322;SDS011;9287;49.456;11.064;2023-05-07T09:27:27;2.85;;;2.47;;
18322;SDS011;9287;49.456;11.064;2023-05-07T09:29:57;2.20;;;1.98;;
18322;SDS011;9287;49.456;11.064;2023-05-07T09:32:25;2.35;;;2.25;;
18322;SDS011;9287;49.456;11.064;2023-05-07T09:34:53;2.67;;;2.47;;
18322;SDS011;9287;49.456;11.064;2023-05-07T09:37:22;2.22;;;2.03;;
18322;SDS011;9287;49.456;11.064;2023-05-07T09:39:49;2.28;;;2.17;;
18322;SDS011;9287;49.456;11.064;2023-05-07T09:42:22;4.28;;;2.72;;
18322;SDS011;9287;49.456;11.064;2023-05-07T09:44:50;2.85;;;2.63;;
18322;SDS011;9287;49.456;11.064;2023-05-07T09:47:20;3.65;;;2.42;;
18322;SDS011;9287;49.456;11.064;2023-05-07T09:49:50;3.95;;;2.47;;
18322;SDS011;9287;49.456;11.064;2023-05-07T09:52:23;2.97;;;2.60;;
18322;SDS011;9287;49.456;11.064;2023-05-07T09:54:55;3.03;;;2.40;;
18322;SDS011;9287;49.456;11.064;2023-05-07T09:57:25;3.03;;;2.17;;
18322;SDS011;9287;49.456;11.064;2023-05-07T09:59:55;2.95;;;2.75;;
18322;SDS011;9287;49.456;11.064;2023-05-07T10:02:26;2.88;;;2.50;;
18322;SDS011;9287;49.456;11.064;2023-05-07T10:04:57;3.17;;;2.97;;
18322;SDS011;9287;49.456;11.064;2023-05-07T10:07:26;2.75;;;2.55;;
18322;SDS011;9287;49.456;11.064;2023-05-07T10:09:55;3.05;;;2.30;;
18322;SDS011;9287;49.456;11.064;2023-05-07T10:12:24;3.10;;;2.90;;
18322;SDS011;9287;49.456;11.064;2023-05-07T10:14:53;2.53;;;2.33;;
18322;SDS011;9287;49.456;11.064;2023-05-07T10:17:23;2.58;;;2.40;;
18322;SDS011;9287;49.456;11.064;2023-05-07T10:19:53;2.60;;;2.20;;
18322;SDS011;9287;49.456;11.064;2023-05-07T10:22:22;2.72;;;2.53;;
18322;SDS011;9287;49.456;11.064;2023-05-07T10:24:54;3.53;;;2.60;;
18322;SDS011;9287;49.456;11.064;2023-05-07T10:27:26;2.80;;;2.60;;
18322;SDS011;9287;49.456;11.064;2023-05-07T10:29:57;2.70;;;2.50;;
18322;SDS011;9287;49.456;11.064;2023-05-07T10:32:37;2.97;;;2.78;;
18322;SDS011;9287;49.456;11.064;2023-05-07T10:35:10;5.07;;;4.55;;
18322;SDS011;9287;49.456;11.064;2023-05-07T10:37:43;2.63;;;2.42;;
18322;SDS011;9287;49.456;11.064;2023-05-07T10:40:12;2.65;;;2.13;;
18322;SDS011;9287;49.456;11.064;2023-05-07T10:42:53;4.88;;;2.50;;
18322;SDS011;9287;49.456;11.064;2023-05-07T10:45:22;5.10;;;2.90;;
18322;SDS011;9287;49.456;11.064;2023-05-07T10:48:07;2.58;;;2.38;;
18322;SDS011;9287;49.456;11.064;2023-05-07T10:53:48;3.45;;;2.88;;
18322;SDS011;9287;49.456;11.064;2023-05-07T10:56:25;3.20;;;2.50;;
18322;SDS011;9287;49.456;11.064;2023-05-07T10:58:55;2.65;;;2.45;;
18322;SDS011;9287;49.456;11.064;2023-05-07T11:01:53;2.75;;;2.53;;
18322;SDS011;9287;49.456;11.064;2023-05-07T11:04:24;3.00;;;2.10;;
18322;SDS011;9287;49.456;11.064;2023-05-07T11:12:48;2.95;;;2.75;;
18322;SDS011;9287;49.456;11.064;2023-05-07T11:15:34;2.65;;;2.45;;
18322;SDS011;9287;49.456;11.064;2023-05-07T11:18:03;2.60;;;2.38;;
18322;SDS011;9287;49.456;11.064;2023-05-07T11:20:49;2.30;;;2.15;;
18322;SDS011;9287;49.456;11.064;2023-05-07T11:26:43;2.38;;;2.20;;
18322;SDS011;9287;49.456;11.064;2023-05-07T11:29:16;3.50;;;1.80;;
18322;SDS011;9287;49.456;11.064;2023-05-07T11:31:48;2.08;;;1.85;;
18322;SDS011;9287;49.456;11.064;2023-05-07T11:34:20;2.25;;;1.80;;
18322;SDS011;9287;49.456;11.064;2023-05-07T11:36:50;2.08;;;1.42;;
18322;SDS011;9287;49.456;11.064;2023-05-07T11:39:23;2.20;;;1.73;;
18322;SDS011;9287;49.456;11.064;2023-05-07T11:41:56;1.80;;;1.70;;
18322;SDS011;9287;49.456;11.064;2023-05-07T11:44:40;3.42;;;1.65;;
18322;SDS011;9287;49.456;11.064;2023-05-07T11:47:09;1.73;;;1.63;;
18322;SDS011;9287;49.456;11.064;2023-05-07T11:49:37;1.40;;;1.30;;
18322;SDS011;9287;49.456;11.064;2023-05-07T11:52:07;2.03;;;1.70;;
18322;SDS011;9287;49.456;11.064;2023-05-07T11:54:36;1.40;;;1.30;;
18322;SDS011;9287;49.456;11.064;2023-05-07T11:57:06;1.67;;;1.33;;
18322;SDS011;9287;49.456;11.064;2023-05-07T11:59:41;1.50;;;1.40;;
18322;SDS011;9287;49.456;11.064;2023-05-07T12:02:10;1.92;;;1.27;;
18322;SDS011;9287;49.456;11.064;2023-05-07T12:04:40;1.50;;;1.40;;
18322;SDS011;9287;49.456;11.064;2023-05-07T12:07:11;1.85;;;1.50;;
18322;SDS011;9287;49.456;11.064;2023-05-07T12:09:39;1.77;;;1.67;;
18322;SDS011;9287;49.456;11.064;2023-05-07T12:12:09;1.75;;;1.65;;
18322;SDS011;9287;49.456;11.064;2023-05-07T12:14:37;2.28;;;1.50;;
18322;SDS011;9287;49.456;11.064;2023-05-07T12:17:08;2.35;;;1.35;;
18322;SDS011;9287;49.456;11.064;2023-05-07T12:19:39;1.70;;;1.10;;
18322;SDS011;9287;49.456;11.064;2023-05-07T12:22:09;1.88;;;1.20;;
18322;SDS011;9287;49.456;11.064;2023-05-07T12:24:47;1.40;;;1.30;;
18322;SDS011;9287;49.456;11.064;2023-05-07T12:27:18;1.17;;;1.00;;
18322;SDS011;9287;49.456;11.064;2023-05-07T12:29:46;1.58;;;1.48;;
18322;SDS011;9287;49.456;11.064;2023-05-07T12:32:14;1.58;;;1.40;;
18322;SDS011;9287;49.456;11.064;2023-05-07T12:34:42;2.38;;;1.80;;
18322;SDS011;9287;49.456;11.064;2023-05-07T12:37:13;2.42;;;2.22;;
18322;SDS011;9287;49.456;11.064;2023-05-07T12:39:44;3.35;;;1.83;;
18322;SDS011;9287;49.456;11.064;2023-05-07T12:42:14;2.22;;;2.03;;
18322;SDS011;9287;49.456;11.064;2023-05-07T12:44:46;2.13;;;1.92;;
18322;SDS011;9287;49.456;11.064;2023-05-07T12:47:14;2.00;;;1.85;;
18322;SDS011;9287;49.456;11.064;2023-05-07T12:49:43;2.20;;;1.52;;
18322;SDS011;9287;49.456;11.064;2023-05-07T12:52:12;1.90;;;1.60;;
18322;SDS011;9287;49.456;11.064;2023-05-07T12:54:41;2.10;;;1.88;;
18322;SDS011;9287;49.456;11.064;2023-05-07T12:57:09;1.95;;;1.85;;
18322;SDS011;9287;49.456;11.064;2023-05-07T12:59:38;2.65;;;1.63;;
18322;SDS011;9287;49.456;11.064;2023-05-07T13:02:08;2.47;;;1.73;;
18322;SDS011;9287;49.456;11.064;2023-05-07T13:04:37;1.73;;;1.63;;
18322;SDS011;9287;49.456;11.064;2023-05-07T13:07:07;1.95;;;1.85;;
18322;SDS011;9287;49.456;11.064;2023-05-07T13:09:35;2.63;;;1.90;;
18322;SDS011;9287;49.456;11.064;2023-05-07T13:12:03;1.70;;;1.42;;
18322;SDS011;9287;49.456;11.064;2023-05-07T13:14:32;1.45;;;1.35;;
18322;SDS011;9287;49.456;11.064;2023-05-07T13:17:00;3.10;;;1.75;;
18322;SDS011;9287;49.456;11.064;2023-05-07T13:19:29;1.65;;;1.55;;
18322;SDS011;9287;49.456;11.064;2023-05-07T13:21:57;1.80;;;1.50;;
18322;SDS011;9287;49.456;11.064;2023-05-07T13:24:25;1.73;;;1.58;;
18322;SDS011;9287;49.456;11.064;2023-05-07T13:26:53;3.05;;;1.75;;
18322;SDS011;9287;49.456;11.064;2023-05-07T13:29:21;2.03;;;1.92;;
18322;SDS011;9287;49.456;11.064;2023-05-07T13:31:54;1.88;;;1.77;;
18322;SDS011;9287;49.456;11.064;2023-05-07T13:34:24;1.50;;;1.40;;
18322;SDS011;9287;49.456;11.064;2023-05-07T13:36:54;1.80;;;1.70;;
18322;SDS011;9287;49.456;11.064;2023-05-07T13:39:22;1.80;;;1.52;;
18322;SDS011;9287;49.456;11.064;2023-05-07T13:41:52;1.80;;;1.70;;
18322;SDS011;9287;49.456;11.064;2023-05-07T13:44:20;2.50;;;2.08;;
18322;SDS011;9287;49.456;11.064;2023-05-07T13:46:48;2.72;;;1.80;;
18322;SDS011;9287;49.456;11.064;2023-05-07T13:49:15;2.75;;;1.52;;
18322;SDS011;9287;49.456;11.064;2023-05-07T13:51:43;2.00;;;1.80;;
18322;SDS011;9287;49.456;11.064;2023-05-07T13:54:13;2.30;;;2.10;;
18322;SDS011;9287;49.456;11.064;2023-05-07T13:56:40;3.17;;;2.08;;
18322;SDS011;9287;49.456;11.064;2023-05-07T13:59:08;2.70;;;1.95;;
18322;SDS011;9287;49.456;11.064;2023-05-07T14:01:38;4.15;;;1.60;;
18322;SDS011;9287;49.456;11.064;2023-05-07T14:04:05;2.03;;;1.92;;
18322;SDS011;9287;49.456;11.064;2023-05-07T14:06:35;3.20;;;1.80;;
18322;SDS011;9287;49.456;11.064;2023-05-07T14:09:03;1.90;;;1.80;;
18322;SDS011;9287;49.456;11.064;2023-05-07T14:11:34;1.77;;;1.67;;
18322;SDS011;9287;49.456;11.064;2023-05-07T14:14:03;3.63;;;1.90;;
18322;SDS011;9287;49.456;11.064;2023-05-07T14:16:31;2.60;;;1.77;;
18322;SDS011;9287;49.456;11.064;2023-05-07T14:18:59;2.50;;;1.48;;
18322;SDS011;9287;49.456;11.064;2023-05-07T14:21:27;3.15;;;1.67;;
18322;SDS011;9287;49.456;11.064;2023-05-07T14:23:55;4.03;;;1.77;;
18322;SDS011;9287;49.456;11.064;2023-05-07T14:26:23;2.08;;;1.75;;
18322;SDS011;9287;49.456;11.064;2023-05-07T14:28:54;2.83;;;1.55;;
18322;SDS011;9287;49.456;11.064;2023-05-07T14:31:24;2.10;;;1.25;;
18322;SDS011;9287;49.456;11.064;2023-05-07T14:33:53;1.58;;;1.42;;
18322;SDS011;9287;49.456;11.064;2023-05-07T14:36:21;3.28;;;1.27;;
18322;SDS011;9287;49.456;11.064;2023-05-07T14:38:52;1.73;;;1.63;;
18322;SDS011;9287;49.456;11.064;2023-05-07T14:41:21;2.47;;;2.28;;
18322;SDS011;9287;49.456;11.064;2023-05-07T14:43:51;3.95;;;2.88;;
18322;SDS011;9287;49.456;11.064;2023-05-07T14:46:21;2.33;;;2.15;;
18322;SDS011;9287;49.456;11.064;2023-05-07T14:48:50;2.30;;;1.88;;
18322;SDS011;9287;49.456;11.064;2023-05-07T14:51:18;2.20;;;1.95;;
18322;SDS011;9287;49.456;11.064;2023-05-07T14:53:47;4.03;;;1.90;;
18322;SDS011;9287;49.456;11.064;2023-05-07T14:56:16;5.40;;;2.38;;
18322;SDS011;9287;49.456;11.064;2023-05-07T14:58:46;2.53;;;2.13;;
18322;SDS011;9287;49.456;11.064;2023-05-07T15:01:15;2.83;;;2.25;;
18322;SDS011;9287;49.456;11.064;2023-05-07T15:03:44;3.20;;;2.95;;
18322;SDS011;9287;49.456;11.064;2023-05-07T15:06:12;2.30;;;2.10;;
18322;SDS011;9287;49.456;11.064;2023-05-07T15:08:42;2.90;;;2.63;;
18322;SDS011;9287;49.456;11.064;2023-05-07T15:11:09;4.15;;;3.85;;
18322;SDS011;9287;49.456;11.064;2023-05-07T15:13:37;3.28;;;3.08;;
18322;SDS011;9287;49.456;11.064;2023-05-07T15:16:05;2.58;;;2.38;;